sensor_id;sensor_type;location;lat;lon;timestamp;temperature;humidity
80212;DHT22;70434;37.956;23.722;2023-07-09T00:01:59;31.50;27.90
80212;DHT22;70434;37.956;23.722;2023-07-09T00:04:24;31.50;27.80
80212;DHT22;70434;37.956;23.722;2023-07-09T00:06:50;31.50;27.90
80212;DHT22;70434;37.956;23.722;2023-07-09T00:09:20;31.50;27.90
80212;DHT22;70434;37.956;23.722;2023-07-09T00:11:47;31.50;28.20
80212;DHT22;70434;37.956;23.722;2023-07-09T00:14:15;31.50;28.50
80212;DHT22;70434;37.956;23.722;2023-07-09T00:16:42;31.30;28.80
80212;DHT22;70434;37.956;23.722;2023-07-09T00:19:12;31.10;29.20
80212;DHT22;70434;37.956;23.722;2023-07-09T00:21:39;31.10;29.50
80212;DHT22;70434;37.956;23.722;2023-07-09T00:24:07;31.00;29.80
80212;DHT22;70434;37.956;23.722;2023-07-09T00:26:33;31.00;29.90
80212;DHT22;70434;37.956;23.722;2023-07-09T00:29:00;31.00;30.00
80212;DHT22;70434;37.956;23.722;2023-07-09T00:31:26;30.90;30.20
80212;DHT22;70434;37.956;23.722;2023-07-09T00:33:52;30.80;30.30
80212;DHT22;70434;37.956;23.722;2023-07-09T00:36:27;30.80;30.50
80212;DHT22;70434;37.956;23.722;2023-07-09T00:38:54;30.80;30.70
80212;DHT22;70434;37.956;23.722;2023-07-09T00:41:22;30.80;30.70
80212;DHT22;70434;37.956;23.722;2023-07-09T00:43:50;30.80;30.70
80212;DHT22;70434;37.956;23.722;2023-07-09T00:48:57;30.70;30.80
80212;DHT22;70434;37.956;23.722;2023-07-09T00:51:24;30.70;31.00
80212;DHT22;70434;37.956;23.722;2023-07-09T00:53:55;30.60;31.00
80212;DHT22;70434;37.956;23.722;2023-07-09T00:56:31;30.60;31.20
80212;DHT22;70434;37.956;23.722;2023-07-09T00:58:59;30.60;31.30
80212;DHT22;70434;37.956;23.722;2023-07-09T01:01:30;30.50;31.40
80212;DHT22;70434;37.956;23.722;2023-07-09T01:03:57;30.60;31.20
80212;DHT22;70434;37.956;23.722;2023-07-09T01:06:37;30.60;31.00
80212;DHT22;70434;37.956;23.722;2023-07-09T01:09:04;30.40;31.40
80212;DHT22;70434;37.956;23.722;2023-07-09T01:11:31;30.40;31.50
80212;DHT22;70434;37.956;23.722;2023-07-09T01:14:00;30.40;31.50
80212;DHT22;70434;37.956;23.722;2023-07-09T01:16:38;30.50;31.50
80212;DHT22;70434;37.956;23.722;2023-07-09T01:19:07;30.50;31.40
80212;DHT22;70434;37.956;23.722;2023-07-09T01:21:33;30.50;31.40
80212;DHT22;70434;37.956;23.722;2023-07-09T01:24:10;30.50;31.40
80212;DHT22;70434;37.956;23.722;2023-07-09T01:26:38;30.50;31.30
80212;DHT22;70434;37.956;23.722;2023-07-09T01:29:04;30.50;31.30
80212;DHT22;70434;37.956;23.722;2023-07-09T01:31:30;30.50;31.60
80212;DHT22;70434;37.956;23.722;2023-07-09T01:33:56;30.40;31.60
80212;DHT22;70434;37.956;23.722;2023-07-09T01:36:22;30.40;31.90
80212;DHT22;70434;37.956;23.722;2023-07-09T01:38:50;30.40;31.90
80212;DHT22;70434;37.956;23.722;2023-07-09T01:41:16;30.30;31.90
80212;DHT22;70434;37.956;23.722;2023-07-09T01:43:43;30.40;32.10
80212;DHT22;70434;37.956;23.722;2023-07-09T01:46:10;30.30;32.30
80212;DHT22;70434;37.956;23.722;2023-07-09T01:48:38;30.30;32.60
80212;DHT22;70434;37.956;23.722;2023-07-09T01:51:14;30.10;32.80
80212;DHT22;70434;37.956;23.722;2023-07-09T01:53:43;30.10;32.80
80212;DHT22;70434;37.956;23.722;2023-07-09T01:56:10;30.00;33.10
80212;DHT22;70434;37.956;23.722;2023-07-09T01:58:36;30.10;33.00
80212;DHT22;70434;37.956;23.722;2023-07-09T02:01:06;30.10;33.00
80212;DHT22;70434;37.956;23.722;2023-07-09T02:03:32;30.10;33.10
80212;DHT22;70434;37.956;23.722;2023-07-09T02:05:58;30.10;32.90
80212;DHT22;70434;37.956;23.722;2023-07-09T02:08:25;30.20;32.90
80212;DHT22;70434;37.956;23.722;2023-07-09T02:10:51;30.20;32.90
80212;DHT22;70434;37.956;23.722;2023-07-09T02:13:17;30.20;32.90
80212;DHT22;70434;37.956;23.722;2023-07-09T02:15:43;30.20;32.90
80212;DHT22;70434;37.956;23.722;2023-07-09T02:18:15;30.30;32.80
80212;DHT22;70434;37.956;23.722;2023-07-09T02:20:41;30.30;32.60
80212;DHT22;70434;37.956;23.722;2023-07-09T02:23:07;30.30;32.40
80212;DHT22;70434;37.956;23.722;2023-07-09T02:25:33;30.30;32.50
80212;DHT22;70434;37.956;23.722;2023-07-09T02:27:59;30.30;32.50
80212;DHT22;70434;37.956;23.722;2023-07-09T02:30:25;30.30;32.60
80212;DHT22;70434;37.956;23.722;2023-07-09T02:32:51;30.30;32.40
80212;DHT22;70434;37.956;23.722;2023-07-09T02:35:20;30.30;32.50
80212;DHT22;70434;37.956;23.722;2023-07-09T02:37:46;30.30;32.60
80212;DHT22;70434;37.956;23.722;2023-07-09T02:40:12;30.30;32.60
80212;DHT22;70434;37.956;23.722;2023-07-09T02:42:38;30.30;32.70
80212;DHT22;70434;37.956;23.722;2023-07-09T02:45:05;30.30;32.80
80212;DHT22;70434;37.956;23.722;2023-07-09T02:47:31;30.30;33.00
80212;DHT22;70434;37.956;23.722;2023-07-09T02:49:57;30.20;33.00
80212;DHT22;70434;37.956;23.722;2023-07-09T02:52:23;30.20;33.00
80212;DHT22;70434;37.956;23.722;2023-07-09T02:54:48;30.20;33.40
80212;DHT22;70434;37.956;23.722;2023-07-09T02:57:14;30.10;33.40
80212;DHT22;70434;37.956;23.722;2023-07-09T02:59:40;30.10;33.50
80212;DHT22;70434;37.956;23.722;2023-07-09T03:02:05;30.10;33.80
80212;DHT22;70434;37.956;23.722;2023-07-09T03:04:31;30.00;34.10
80212;DHT22;70434;37.956;23.722;2023-07-09T03:06:57;30.00;34.40
80212;DHT22;70434;37.956;23.722;2023-07-09T03:09:23;29.90;34.50
80212;DHT22;70434;37.956;23.722;2023-07-09T03:11:49;29.90;34.70
80212;DHT22;70434;37.956;23.722;2023-07-09T03:14:15;29.90;34.90
80212;DHT22;70434;37.956;23.722;2023-07-09T03:16:41;29.90;35.20
80212;DHT22;70434;37.956;23.722;2023-07-09T03:19:06;29.90;35.50
80212;DHT22;70434;37.956;23.722;2023-07-09T03:21:32;29.90;35.60
80212;DHT22;70434;37.956;23.722;2023-07-09T03:23:58;29.90;35.90
80212;DHT22;70434;37.956;23.722;2023-07-09T03:26:24;29.80;36.10
80212;DHT22;70434;37.956;23.722;2023-07-09T03:28:53;29.80;36.30
80212;DHT22;70434;37.956;23.722;2023-07-09T03:31:20;29.70;36.70
80212;DHT22;70434;37.956;23.722;2023-07-09T03:33:50;29.60;37.10
80212;DHT22;70434;37.956;23.722;2023-07-09T03:36:17;29.40;37.40
80212;DHT22;70434;37.956;23.722;2023-07-09T03:38:44;29.50;37.60
80212;DHT22;70434;37.956;23.722;2023-07-09T03:41:10;29.40;37.50
80212;DHT22;70434;37.956;23.722;2023-07-09T03:43:35;29.40;37.80
80212;DHT22;70434;37.956;23.722;2023-07-09T03:46:01;29.40;37.90
80212;DHT22;70434;37.956;23.722;2023-07-09T03:48:27;29.40;38.00
80212;DHT22;70434;37.956;23.722;2023-07-09T03:50:53;29.40;37.80
80212;DHT22;70434;37.956;23.722;2023-07-09T03:53:19;29.50;37.70
80212;DHT22;70434;37.956;23.722;2023-07-09T03:55:53;29.40;37.70
80212;DHT22;70434;37.956;23.722;2023-07-09T03:58:19;29.30;37.90
80212;DHT22;70434;37.956;23.722;2023-07-09T04:00:44;29.30;38.10
80212;DHT22;70434;37.956;23.722;2023-07-09T04:03:10;29.30;38.20
80212;DHT22;70434;37.956;23.722;2023-07-09T04:05:36;29.40;38.30
80212;DHT22;70434;37.956;23.722;2023-07-09T04:08:03;29.50;38.40
80212;DHT22;70434;37.956;23.722;2023-07-09T04:10:29;29.60;38.90
80212;DHT22;70434;37.956;23.722;2023-07-09T04:12:54;29.60;39.50
80212;DHT22;70434;37.956;23.722;2023-07-09T04:15:21;29.50;39.90
80212;DHT22;70434;37.956;23.722;2023-07-09T04:17:46;29.50;40.70
80212;DHT22;70434;37.956;23.722;2023-07-09T04:20:12;29.50;40.70
80212;DHT22;70434;37.956;23.722;2023-07-09T04:22:39;29.40;41.20
80212;DHT22;70434;37.956;23.722;2023-07-09T04:25:08;29.40;41.90
80212;DHT22;70434;37.956;23.722;2023-07-09T04:27:36;29.40;43.00
80212;DHT22;70434;37.956;23.722;2023-07-09T04:30:02;29.20;43.70
80212;DHT22;70434;37.956;23.722;2023-07-09T04:32:30;29.20;44.10
80212;DHT22;70434;37.956;23.722;2023-07-09T04:34:56;29.20;44.30
80212;DHT22;70434;37.956;23.722;2023-07-09T04:37:22;29.20;43.80
80212;DHT22;70434;37.956;23.722;2023-07-09T04:39:48;29.20;43.70
80212;DHT22;70434;37.956;23.722;2023-07-09T04:42:16;29.10;44.40
80212;DHT22;70434;37.956;23.722;2023-07-09T04:44:43;28.90;44.40
80212;DHT22;70434;37.956;23.722;2023-07-09T04:47:09;29.00;44.30
80212;DHT22;70434;37.956;23.722;2023-07-09T04:49:35;29.00;44.30
80212;DHT22;70434;37.956;23.722;2023-07-09T04:52:01;29.00;44.10
80212;DHT22;70434;37.956;23.722;2023-07-09T04:54:27;29.10;44.20
80212;DHT22;70434;37.956;23.722;2023-07-09T04:56:53;29.10;44.20
80212;DHT22;70434;37.956;23.722;2023-07-09T04:59:19;29.10;44.00
80212;DHT22;70434;37.956;23.722;2023-07-09T05:01:46;29.10;44.10
80212;DHT22;70434;37.956;23.722;2023-07-09T05:04:12;29.10;44.50
80212;DHT22;70434;37.956;23.722;2023-07-09T05:06:37;29.10;44.30
80212;DHT22;70434;37.956;23.722;2023-07-09T05:09:04;29.20;44.10
80212;DHT22;70434;37.956;23.722;2023-07-09T05:11:33;29.30;43.80
80212;DHT22;70434;37.956;23.722;2023-07-09T05:13:59;29.30;43.70
80212;DHT22;70434;37.956;23.722;2023-07-09T05:16:24;29.40;43.50
80212;DHT22;70434;37.956;23.722;2023-07-09T05:18:50;29.50;43.40
80212;DHT22;70434;37.956;23.722;2023-07-09T05:21:16;29.50;43.30
80212;DHT22;70434;37.956;23.722;2023-07-09T05:23:41;29.60;43.30
80212;DHT22;70434;37.956;23.722;2023-07-09T05:26:07;29.60;43.20
80212;DHT22;70434;37.956;23.722;2023-07-09T05:28:34;29.60;43.20
80212;DHT22;70434;37.956;23.722;2023-07-09T05:31:00;29.70;43.20
80212;DHT22;70434;37.956;23.722;2023-07-09T05:33:26;29.70;43.10
80212;DHT22;70434;37.956;23.722;2023-07-09T05:35:51;29.70;42.70
80212;DHT22;70434;37.956;23.722;2023-07-09T05:38:17;29.80;42.60
80212;DHT22;70434;37.956;23.722;2023-07-09T05:40:43;29.80;42.60
80212;DHT22;70434;37.956;23.722;2023-07-09T05:43:10;29.90;42.70
80212;DHT22;70434;37.956;23.722;2023-07-09T05:45:39;29.90;42.50
80212;DHT22;70434;37.956;23.722;2023-07-09T05:48:05;29.90;42.50
80212;DHT22;70434;37.956;23.722;2023-07-09T05:50:33;29.90;42.30
80212;DHT22;70434;37.956;23.722;2023-07-09T05:52:59;30.00;42.30
80212;DHT22;70434;37.956;23.722;2023-07-09T05:55:25;29.90;42.00
80212;DHT22;70434;37.956;23.722;2023-07-09T05:57:52;29.90;41.90
80212;DHT22;70434;37.956;23.722;2023-07-09T06:00:18;30.00;41.80
80212;DHT22;70434;37.956;23.722;2023-07-09T06:02:44;29.90;41.90
80212;DHT22;70434;37.956;23.722;2023-07-09T06:05:10;30.00;41.40
80212;DHT22;70434;37.956;23.722;2023-07-09T06:07:37;30.00;42.40
80212;DHT22;70434;37.956;23.722;2023-07-09T06:10:04;30.00;41.40
80212;DHT22;70434;37.956;23.722;2023-07-09T06:12:30;30.10;41.30
80212;DHT22;70434;37.956;23.722;2023-07-09T06:14:56;30.10;41.10
80212;DHT22;70434;37.956;23.722;2023-07-09T06:17:22;30.20;40.80
80212;DHT22;70434;37.956;23.722;2023-07-09T06:19:48;30.20;40.40
80212;DHT22;70434;37.956;23.722;2023-07-09T06:22:13;30.20;40.00
80212;DHT22;70434;37.956;23.722;2023-07-09T06:24:39;30.20;40.00
80212;DHT22;70434;37.956;23.722;2023-07-09T06:27:05;30.20;39.60
80212;DHT22;70434;37.956;23.722;2023-07-09T06:29:30;30.30;39.90
80212;DHT22;70434;37.956;23.722;2023-07-09T06:31:56;30.30;39.80
80212;DHT22;70434;37.956;23.722;2023-07-09T06:34:22;30.30;39.60
80212;DHT22;70434;37.956;23.722;2023-07-09T06:36:48;30.20;40.00
80212;DHT22;70434;37.956;23.722;2023-07-09T06:39:13;30.30;40.10
80212;DHT22;70434;37.956;23.722;2023-07-09T06:41:39;30.30;39.80
80212;DHT22;70434;37.956;23.722;2023-07-09T06:44:06;30.30;39.70
80212;DHT22;70434;37.956;23.722;2023-07-09T06:46:32;30.30;39.90
80212;DHT22;70434;37.956;23.722;2023-07-09T06:48:58;30.50;39.90
80212;DHT22;70434;37.956;23.722;2023-07-09T06:51:24;30.60;39.10
80212;DHT22;70434;37.956;23.722;2023-07-09T06:53:52;30.60;39.00
80212;DHT22;70434;37.956;23.722;2023-07-09T06:56:17;30.60;38.90
80212;DHT22;70434;37.956;23.722;2023-07-09T06:58:43;30.60;38.50
80212;DHT22;70434;37.956;23.722;2023-07-09T07:01:11;30.70;38.50
80212;DHT22;70434;37.956;23.722;2023-07-09T07:03:38;30.70;39.90
80212;DHT22;70434;37.956;23.722;2023-07-09T07:06:04;30.80;38.90
80212;DHT22;70434;37.956;23.722;2023-07-09T07:08:32;30.80;39.00
80212;DHT22;70434;37.956;23.722;2023-07-09T07:11:00;30.80;39.10
80212;DHT22;70434;37.956;23.722;2023-07-09T07:13:35;30.80;39.00
80212;DHT22;70434;37.956;23.722;2023-07-09T07:16:04;30.80;38.80
80212;DHT22;70434;37.956;23.722;2023-07-09T07:18:30;30.90;39.50
80212;DHT22;70434;37.956;23.722;2023-07-09T07:20:55;31.00;39.50
80212;DHT22;70434;37.956;23.722;2023-07-09T07:23:21;31.00;38.90
80212;DHT22;70434;37.956;23.722;2023-07-09T07:25:49;31.00;39.00
80212;DHT22;70434;37.956;23.722;2023-07-09T07:28:15;31.00;38.90
80212;DHT22;70434;37.956;23.722;2023-07-09T07:30:41;31.00;38.90
80212;DHT22;70434;37.956;23.722;2023-07-09T07:33:07;31.00;39.00
80212;DHT22;70434;37.956;23.722;2023-07-09T07:35:33;31.00;38.50
80212;DHT22;70434;37.956;23.722;2023-07-09T07:37:59;31.00;37.80
80212;DHT22;70434;37.956;23.722;2023-07-09T07:40:24;31.10;37.70
80212;DHT22;70434;37.956;23.722;2023-07-09T07:42:50;31.10;37.30
80212;DHT22;70434;37.956;23.722;2023-07-09T07:45:16;30.90;38.10
80212;DHT22;70434;37.956;23.722;2023-07-09T07:47:42;30.80;37.90
80212;DHT22;70434;37.956;23.722;2023-07-09T07:50:09;30.80;38.00
80212;DHT22;70434;37.956;23.722;2023-07-09T07:52:35;30.90;37.50
80212;DHT22;70434;37.956;23.722;2023-07-09T07:55:04;30.90;37.60
80212;DHT22;70434;37.956;23.722;2023-07-09T07:57:30;31.00;37.00
80212;DHT22;70434;37.956;23.722;2023-07-09T07:59:56;30.90;37.30
80212;DHT22;70434;37.956;23.722;2023-07-09T08:02:23;31.00;37.30
80212;DHT22;70434;37.956;23.722;2023-07-09T08:04:49;31.00;37.40
80212;DHT22;70434;37.956;23.722;2023-07-09T08:07:17;31.10;36.80
80212;DHT22;70434;37.956;23.722;2023-07-09T08:09:44;31.20;36.40
80212;DHT22;70434;37.956;23.722;2023-07-09T08:12:12;31.30;36.30
80212;DHT22;70434;37.956;23.722;2023-07-09T08:14:39;31.20;36.30
80212;DHT22;70434;37.956;23.722;2023-07-09T08:17:06;31.30;36.30
80212;DHT22;70434;37.956;23.722;2023-07-09T08:19:43;31.30;35.80
80212;DHT22;70434;37.956;23.722;2023-07-09T08:22:08;31.30;35.60
80212;DHT22;70434;37.956;23.722;2023-07-09T08:24:34;31.40;35.30
80212;DHT22;70434;37.956;23.722;2023-07-09T08:27:00;31.50;35.00
80212;DHT22;70434;37.956;23.722;2023-07-09T08:29:26;31.70;35.30
80212;DHT22;70434;37.956;23.722;2023-07-09T08:31:52;31.70;35.30
80212;DHT22;70434;37.956;23.722;2023-07-09T08:34:18;31.70;36.60
80212;DHT22;70434;37.956;23.722;2023-07-09T08:36:43;31.70;36.70
80212;DHT22;70434;37.956;23.722;2023-07-09T08:39:10;31.70;37.10
80212;DHT22;70434;37.956;23.722;2023-07-09T08:41:52;31.70;37.10
80212;DHT22;70434;37.956;23.722;2023-07-09T08:50:15;31.60;33.90
80212;DHT22;70434;37.956;23.722;2023-07-09T08:52:45;31.60;33.70
80212;DHT22;70434;37.956;23.722;2023-07-09T08:55:15;31.60;34.10
80212;DHT22;70434;37.956;23.722;2023-07-09T08:57:45;31.60;35.50
80212;DHT22;70434;37.956;23.722;2023-07-09T09:00:15;31.70;34.20
80212;DHT22;70434;37.956;23.722;2023-07-09T09:03:02;31.80;33.00
80212;DHT22;70434;37.956;23.722;2023-07-09T09:05:31;31.80;32.90
80212;DHT22;70434;37.956;23.722;2023-07-09T09:10:48;31.60;33.10
80212;DHT22;70434;37.956;23.722;2023-07-09T09:13:18;31.60;33.70
80212;DHT22;70434;37.956;23.722;2023-07-09T09:15:47;31.50;32.70
80212;DHT22;70434;37.956;23.722;2023-07-09T09:20:41;31.30;33.70
80212;DHT22;70434;37.956;23.722;2023-07-09T09:25:34;31.20;33.10
80212;DHT22;70434;37.956;23.722;2023-07-09T09:28:03;31.50;32.10
80212;DHT22;70434;37.956;23.722;2023-07-09T09:30:30;31.60;32.40
80212;DHT22;70434;37.956;23.722;2023-07-09T09:33:06;31.70;31.80
80212;DHT22;70434;37.956;23.722;2023-07-09T09:35:38;31.80;31.90
80212;DHT22;70434;37.956;23.722;2023-07-09T09:38:22;31.90;32.40
80212;DHT22;70434;37.956;23.722;2023-07-09T09:40:48;32.20;32.40
80212;DHT22;70434;37.956;23.722;2023-07-09T09:43:19;32.40;31.80
80212;DHT22;70434;37.956;23.722;2023-07-09T09:45:49;32.50;31.60
80212;DHT22;70434;37.956;23.722;2023-07-09T09:48:19;32.60;31.20
80212;DHT22;70434;37.956;23.722;2023-07-09T09:50:47;32.90;31.30
80212;DHT22;70434;37.956;23.722;2023-07-09T09:53:21;32.90;32.60
80212;DHT22;70434;37.956;23.722;2023-07-09T09:55:48;32.90;35.40
80212;DHT22;70434;37.956;23.722;2023-07-09T09:58:17;32.80;36.50
80212;DHT22;70434;37.956;23.722;2023-07-09T10:00:55;32.70;35.90
80212;DHT22;70434;37.956;23.722;2023-07-09T10:03:21;32.60;37.30
80212;DHT22;70434;37.956;23.722;2023-07-09T10:05:55;32.40;37.40
80212;DHT22;70434;37.956;23.722;2023-07-09T10:11:16;32.10;39.40
80212;DHT22;70434;37.956;23.722;2023-07-09T10:13:45;32.00;39.90
80212;DHT22;70434;37.956;23.722;2023-07-09T10:16:38;32.00;39.70
80212;DHT22;70434;37.956;23.722;2023-07-09T10:19:31;31.90;40.00
80212;DHT22;70434;37.956;23.722;2023-07-09T10:22:22;31.90;39.60
80212;DHT22;70434;37.956;23.722;2023-07-09T10:27:59;31.70;39.20
80212;DHT22;70434;37.956;23.722;2023-07-09T10:39:26;31.70;39.00
80212;DHT22;70434;37.956;23.722;2023-07-09T10:41:56;31.80;38.50
80212;DHT22;70434;37.956;23.722;2023-07-09T10:44:32;31.90;38.00
80212;DHT22;70434;37.956;23.722;2023-07-09T10:47:23;32.00;38.00
80212;DHT22;70434;37.956;23.722;2023-07-09T10:49:52;32.00;37.80
80212;DHT22;70434;37.956;23.722;2023-07-09T10:52:36;32.00;37.00
80212;DHT22;70434;37.956;23.722;2023-07-09T10:55:29;32.10;36.80
80212;DHT22;70434;37.956;23.722;2023-07-09T10:58:02;32.20;36.70
80212;DHT22;70434;37.956;23.722;2023-07-09T11:00:35;32.20;36.30
80212;DHT22;70434;37.956;23.722;2023-07-09T11:03:18;32.20;35.80
80212;DHT22;70434;37.956;23.722;2023-07-09T11:05:45;32.10;36.20
80212;DHT22;70434;37.956;23.722;2023-07-09T11:08:18;32.00;36.20
80212;DHT22;70434;37.956;23.722;2023-07-09T11:10:52;31.90;36.10
80212;DHT22;70434;37.956;23.722;2023-07-09T11:13:26;32.00;36.20
80212;DHT22;70434;37.956;23.722;2023-07-09T11:15:55;32.20;36.10
80212;DHT22;70434;37.956;23.722;2023-07-09T11:18:29;32.30;35.90
80212;DHT22;70434;37.956;23.722;2023-07-09T11:21:04;32.40;35.60
80212;DHT22;70434;37.956;23.722;2023-07-09T11:24:00;32.40;34.90
80212;DHT22;70434;37.956;23.722;2023-07-09T11:26:30;32.50;34.90
80212;DHT22;70434;37.956;23.722;2023-07-09T11:29:15;32.60;35.40
80212;DHT22;70434;37.956;23.722;2023-07-09T11:31:43;32.60;37.10
80212;DHT22;70434;37.956;23.722;2023-07-09T11:41:46;32.70;36.00
80212;DHT22;70434;37.956;23.722;2023-07-09T11:44:18;32.70;36.80
80212;DHT22;70434;37.956;23.722;2023-07-09T11:49:22;32.70;36.50
80212;DHT22;70434;37.956;23.722;2023-07-09T11:51:53;32.80;36.70
80212;DHT22;70434;37.956;23.722;2023-07-09T11:54:19;32.70;37.40
80212;DHT22;70434;37.956;23.722;2023-07-09T11:56:56;32.70;38.10
80212;DHT22;70434;37.956;23.722;2023-07-09T11:59:22;32.80;39.40
80212;DHT22;70434;37.956;23.722;2023-07-09T12:01:48;32.90;39.80
80212;DHT22;70434;37.956;23.722;2023-07-09T12:04:18;32.80;39.20
80212;DHT22;70434;37.956;23.722;2023-07-09T12:06:45;32.90;38.70
80212;DHT22;70434;37.956;23.722;2023-07-09T12:09:18;33.00;38.20
80212;DHT22;70434;37.956;23.722;2023-07-09T12:11:46;33.10;37.90
80212;DHT22;70434;37.956;23.722;2023-07-09T12:14:15;33.20;36.90
80212;DHT22;70434;37.956;23.722;2023-07-09T12:16:43;33.20;36.40
80212;DHT22;70434;37.956;23.722;2023-07-09T12:19:11;33.20;36.60
80212;DHT22;70434;37.956;23.722;2023-07-09T12:21:39;33.20;36.70
80212;DHT22;70434;37.956;23.722;2023-07-09T12:24:25;33.20;37.00
80212;DHT22;70434;37.956;23.722;2023-07-09T12:27:01;33.20;37.00
80212;DHT22;70434;37.956;23.722;2023-07-09T12:29:29;33.20;36.10
80212;DHT22;70434;37.956;23.722;2023-07-09T12:31:58;33.10;36.60
80212;DHT22;70434;37.956;23.722;2023-07-09T12:34:24;33.10;36.30
80212;DHT22;70434;37.956;23.722;2023-07-09T12:36:52;33.20;35.50
80212;DHT22;70434;37.956;23.722;2023-07-09T12:39:25;33.30;34.50
80212;DHT22;70434;37.956;23.722;2023-07-09T12:41:54;33.30;34.40
80212;DHT22;70434;37.956;23.722;2023-07-09T12:44:22;33.20;34.50
80212;DHT22;70434;37.956;23.722;2023-07-09T12:46:49;33.20;34.50
80212;DHT22;70434;37.956;23.722;2023-07-09T12:49:30;33.20;34.80
80212;DHT22;70434;37.956;23.722;2023-07-09T12:52:01;33.30;34.60
80212;DHT22;70434;37.956;23.722;2023-07-09T12:54:30;33.40;34.60
80212;DHT22;70434;37.956;23.722;2023-07-09T12:56:59;33.40;34.80
80212;DHT22;70434;37.956;23.722;2023-07-09T12:59:28;33.40;34.60
80212;DHT22;70434;37.956;23.722;2023-07-09T13:02:21;33.60;35.80
80212;DHT22;70434;37.956;23.722;2023-07-09T13:04:49;33.60;34.90
80212;DHT22;70434;37.956;23.722;2023-07-09T13:09:51;33.80;34.70
80212;DHT22;70434;37.956;23.722;2023-07-09T13:12:18;33.90;35.00
80212;DHT22;70434;37.956;23.722;2023-07-09T13:14:52;33.90;34.60
80212;DHT22;70434;37.956;23.722;2023-07-09T13:17:18;34.00;33.60
80212;DHT22;70434;37.956;23.722;2023-07-09T13:19:44;33.90;33.90
80212;DHT22;70434;37.956;23.722;2023-07-09T13:22:17;33.90;34.40
80212;DHT22;70434;37.956;23.722;2023-07-09T13:24:45;33.90;34.60
80212;DHT22;70434;37.956;23.722;2023-07-09T13:27:13;34.00;34.50
80212;DHT22;70434;37.956;23.722;2023-07-09T13:29:39;34.10;34.30
80212;DHT22;70434;37.956;23.722;2023-07-09T13:32:12;34.30;34.50
80212;DHT22;70434;37.956;23.722;2023-07-09T13:34:39;34.30;34.40
80212;DHT22;70434;37.956;23.722;2023-07-09T13:37:10;34.50;33.70
80212;DHT22;70434;37.956;23.722;2023-07-09T13:39:37;34.50;34.10
80212;DHT22;70434;37.956;23.722;2023-07-09T13:42:04;34.40;33.70
80212;DHT22;70434;37.956;23.722;2023-07-09T13:44:32;34.30;33.50
80212;DHT22;70434;37.956;23.722;2023-07-09T13:47:00;34.30;33.80
80212;DHT22;70434;37.956;23.722;2023-07-09T13:49:27;34.40;33.70
80212;DHT22;70434;37.956;23.722;2023-07-09T13:51:56;34.50;33.90
80212;DHT22;70434;37.956;23.722;2023-07-09T13:54:24;34.50;33.70
80212;DHT22;70434;37.956;23.722;2023-07-09T13:56:49;34.50;33.70
80212;DHT22;70434;37.956;23.722;2023-07-09T13:59:21;34.50;33.30
80212;DHT22;70434;37.956;23.722;2023-07-09T14:01:49;34.40;33.50
80212;DHT22;70434;37.956;23.722;2023-07-09T14:04:17;34.40;33.70
80212;DHT22;70434;37.956;23.722;2023-07-09T14:06:43;34.40;33.30
80212;DHT22;70434;37.956;23.722;2023-07-09T14:09:10;34.50;33.50
80212;DHT22;70434;37.956;23.722;2023-07-09T14:11:48;34.50;33.40
80212;DHT22;70434;37.956;23.722;2023-07-09T14:14:19;34.50;33.40
80212;DHT22;70434;37.956;23.722;2023-07-09T14:16:47;34.60;33.80
80212;DHT22;70434;37.956;23.722;2023-07-09T14:19:15;34.80;32.90
80212;DHT22;70434;37.956;23.722;2023-07-09T14:21:41;35.00;32.80
80212;DHT22;70434;37.956;23.722;2023-07-09T14:24:28;35.10;32.20
80212;DHT22;70434;37.956;23.722;2023-07-09T14:26:57;35.10;32.20
80212;DHT22;70434;37.956;23.722;2023-07-09T14:29:24;35.20;32.40
80212;DHT22;70434;37.956;23.722;2023-07-09T14:31:51;35.10;32.90
80212;DHT22;70434;37.956;23.722;2023-07-09T14:36:50;35.10;33.20
80212;DHT22;70434;37.956;23.722;2023-07-09T14:39:17;35.20;33.60
80212;DHT22;70434;37.956;23.722;2023-07-09T14:41:43;35.20;32.70
80212;DHT22;70434;37.956;23.722;2023-07-09T14:44:28;35.40;31.20
80212;DHT22;70434;37.956;23.722;2023-07-09T14:46:56;35.60;30.20
80212;DHT22;70434;37.956;23.722;2023-07-09T14:49:23;35.70;30.30
80212;DHT22;70434;37.956;23.722;2023-07-09T14:51:50;35.80;30.70
80212;DHT22;70434;37.956;23.722;2023-07-09T14:54:30;36.00;30.30
80212;DHT22;70434;37.956;23.722;2023-07-09T14:56:57;36.10;30.20
80212;DHT22;70434;37.956;23.722;2023-07-09T14:59:24;36.10;31.00
80212;DHT22;70434;37.956;23.722;2023-07-09T15:01:50;36.10;31.30
80212;DHT22;70434;37.956;23.722;2023-07-09T15:06:52;36.10;30.60
80212;DHT22;70434;37.956;23.722;2023-07-09T15:09:23;36.00;30.10
80212;DHT22;70434;37.956;23.722;2023-07-09T15:11:52;35.90;30.00
80212;DHT22;70434;37.956;23.722;2023-07-09T15:14:18;36.00;29.60
80212;DHT22;70434;37.956;23.722;2023-07-09T15:16:46;36.10;28.80
80212;DHT22;70434;37.956;23.722;2023-07-09T15:19:13;36.10;29.20
80212;DHT22;70434;37.956;23.722;2023-07-09T15:21:40;36.30;29.10
80212;DHT22;70434;37.956;23.722;2023-07-09T15:24:11;36.30;29.40
80212;DHT22;70434;37.956;23.722;2023-07-09T15:26:40;36.20;30.10
80212;DHT22;70434;37.956;23.722;2023-07-09T15:29:13;36.20;30.00
80212;DHT22;70434;37.956;23.722;2023-07-09T15:31:40;36.10;29.90
80212;DHT22;70434;37.956;23.722;2023-07-09T15:34:05;36.10;30.30
80212;DHT22;70434;37.956;23.722;2023-07-09T15:36:32;36.30;29.90
80212;DHT22;70434;37.956;23.722;2023-07-09T15:38:58;36.50;29.70
80212;DHT22;70434;37.956;23.722;2023-07-09T15:41:24;36.50;29.50
80212;DHT22;70434;37.956;23.722;2023-07-09T15:43:49;36.50;29.50
80212;DHT22;70434;37.956;23.722;2023-07-09T15:46:20;36.50;29.20
80212;DHT22;70434;37.956;23.722;2023-07-09T15:48:47;36.50;29.20
80212;DHT22;70434;37.956;23.722;2023-07-09T15:51:15;36.50;29.30
80212;DHT22;70434;37.956;23.722;2023-07-09T15:53:41;36.50;29.00
80212;DHT22;70434;37.956;23.722;2023-07-09T15:56:29;36.60;28.80
80212;DHT22;70434;37.956;23.722;2023-07-09T15:58:56;36.60;28.60
80212;DHT22;70434;37.956;23.722;2023-07-09T16:01:23;36.60;28.20
80212;DHT22;70434;37.956;23.722;2023-07-09T16:04:00;36.50;28.20
80212;DHT22;70434;37.956;23.722;2023-07-09T16:06:27;36.50;28.30
80212;DHT22;70434;37.956;23.722;2023-07-09T16:08:53;36.70;28.30
80212;DHT22;70434;37.956;23.722;2023-07-09T16:11:22;36.70;28.40
80212;DHT22;70434;37.956;23.722;2023-07-09T16:13:48;36.70;28.40